sensor_id;sensor_type;location;lat;lon;timestamp;P1;durP1;ratioP1;P2;durP2;ratioP2
79212;SDS011;68639;52.380;9.822;2023-03-29T00:00:06;6.97;;;2.63;;
79212;SDS011;68639;52.380;9.822;2023-03-29T00:02:49;6.23;;;2.43;;
79212;SDS011;68639;52.380;9.822;2023-03-29T00:05:15;4.97;;;2.40;;
79212;SDS011;68639;52.380;9.822;2023-03-29T00:07:41;8.90;;;3.03;;
79212;SDS011;68639;52.380;9.822;2023-03-29T00:10:07;9.03;;;3.00;;
79212;SDS011;68639;52.380;9.822;2023-03-29T00:12:34;8.13;;;2.70;;
79212;SDS011;68639;52.380;9.822;2023-03-29T00:14:59;9.47;;;2.60;;
79212;SDS011;68639;52.380;9.822;2023-03-29T00:17:25;9.23;;;2.70;;
79212;SDS011;68639;52.380;9.822;2023-03-29T00:19:51;10.27;;;2.70;;
79212;SDS011;68639;52.380;9.822;2023-03-29T00:22:16;8.00;;;2.87;;
79212;SDS011;68639;52.380;9.822;2023-03-29T00:24:41;8.33;;;3.23;;
79212;SDS011;68639;52.380;9.822;2023-03-29T00:27:06;5.73;;;2.77;;
79212;SDS011;68639;52.380;9.822;2023-03-29T00:29:32;11.33;;;3.60;;
79212;SDS011;68639;52.380;9.822;2023-03-29T00:31:57;7.60;;;3.10;;
79212;SDS011;68639;52.380;9.822;2023-03-29T00:34:23;13.03;;;3.30;;
79212;SDS011;68639;52.380;9.822;2023-03-29T00:36:50;6.70;;;3.13;;
79212;SDS011;68639;52.380;9.822;2023-03-29T00:39:17;10.27;;;3.33;;
79212;SDS011;68639;52.380;9.822;2023-03-29T00:41:46;8.80;;;2.80;;
79212;SDS011;68639;52.380;9.822;2023-03-29T00:46:55;7.93;;;2.70;;
79212;SDS011;68639;52.380;9.822;2023-03-29T00:49:20;8.03;;;2.50;;
79212;SDS011;68639;52.380;9.822;2023-03-29T00:51:45;9.90;;;2.50;;
79212;SDS011;68639;52.380;9.822;2023-03-29T00:54:13;6.47;;;2.23;;
79212;SDS011;68639;52.380;9.822;2023-03-29T00:56:39;10.33;;;2.67;;
79212;SDS011;68639;52.380;9.822;2023-03-29T00:59:08;8.87;;;2.40;;
79212;SDS011;68639;52.380;9.822;2023-03-29T01:01:38;7.67;;;2.30;;
79212;SDS011;68639;52.380;9.822;2023-03-29T01:06:50;9.07;;;2.73;;
79212;SDS011;68639;52.380;9.822;2023-03-29T01:09:17;11.03;;;2.70;;
79212;SDS011;68639;52.380;9.822;2023-03-29T01:11:45;8.53;;;2.53;;
79212;SDS011;68639;52.380;9.822;2023-03-29T01:16:52;7.13;;;2.77;;
79212;SDS011;68639;52.380;9.822;2023-03-29T01:19:19;7.07;;;2.23;;
79212;SDS011;68639;52.380;9.822;2023-03-29T01:21:49;9.37;;;2.60;;
79212;SDS011;68639;52.380;9.822;2023-03-29T01:24:38;12.93;;;4.20;;
79212;SDS011;68639;52.380;9.822;2023-03-29T01:27:04;10.60;;;4.90;;
79212;SDS011;68639;52.380;9.822;2023-03-29T01:29:46;12.87;;;4.57;;
79212;SDS011;68639;52.380;9.822;2023-03-29T01:32:18;11.40;;;4.33;;
79212;SDS011;68639;52.380;9.822;2023-03-29T01:37:13;8.80;;;3.67;;
79212;SDS011;68639;52.380;9.822;2023-03-29T01:39:41;7.43;;;3.50;;
79212;SDS011;68639;52.380;9.822;2023-03-29T01:44:42;8.37;;;3.60;;
79212;SDS011;68639;52.380;9.822;2023-03-29T01:47:10;8.40;;;3.20;;
79212;SDS011;68639;52.380;9.822;2023-03-29T01:49:39;10.47;;;4.03;;
79212;SDS011;68639;52.380;9.822;2023-03-29T01:52:26;9.10;;;3.90;;
79212;SDS011;68639;52.380;9.822;2023-03-29T01:55:15;10.73;;;3.73;;
79212;SDS011;68639;52.380;9.822;2023-03-29T01:57:39;8.80;;;3.33;;
79212;SDS011;68639;52.380;9.822;2023-03-29T02:00:06;10.00;;;4.13;;
79212;SDS011;68639;52.380;9.822;2023-03-29T02:02:34;7.87;;;3.63;;
79212;SDS011;68639;52.380;9.822;2023-03-29T02:05:00;8.13;;;3.70;;
79212;SDS011;68639;52.380;9.822;2023-03-29T02:07:25;8.17;;;3.77;;
79212;SDS011;68639;52.380;9.822;2023-03-29T02:09:54;9.23;;;3.90;;
79212;SDS011;68639;52.380;9.822;2023-03-29T02:12:21;12.70;;;4.60;;
79212;SDS011;68639;52.380;9.822;2023-03-29T02:14:46;13.47;;;4.53;;
79212;SDS011;68639;52.380;9.822;2023-03-29T02:19:43;10.93;;;4.20;;
79212;SDS011;68639;52.380;9.822;2023-03-29T02:22:10;12.17;;;4.07;;
79212;SDS011;68639;52.380;9.822;2023-03-29T02:24:36;10.07;;;4.00;;
79212;SDS011;68639;52.380;9.822;2023-03-29T02:27:02;11.47;;;4.20;;
79212;SDS011;68639;52.380;9.822;2023-03-29T02:29:28;10.90;;;3.57;;
79212;SDS011;68639;52.380;9.822;2023-03-29T02:32:04;9.30;;;4.03;;
79212;SDS011;68639;52.380;9.822;2023-03-29T02:35:06;11.30;;;4.17;;
79212;SDS011;68639;52.380;9.822;2023-03-29T02:37:24;10.00;;;3.73;;
79212;SDS011;68639;52.380;9.822;2023-03-29T02:39:54;11.10;;;4.20;;
79212;SDS011;68639;52.380;9.822;2023-03-29T02:42:20;9.60;;;3.60;;
79212;SDS011;68639;52.380;9.822;2023-03-29T02:44:46;13.47;;;3.90;;
79212;SDS011;68639;52.380;9.822;2023-03-29T02:47:21;13.20;;;4.17;;
79212;SDS011;68639;52.380;9.822;2023-03-29T02:49:46;9.97;;;4.07;;
79212;SDS011;68639;52.380;9.822;2023-03-29T02:52:15;8.03;;;4.07;;
79212;SDS011;68639;52.380;9.822;2023-03-29T02:54:43;9.27;;;4.00;;
79212;SDS011;68639;52.380;9.822;2023-03-29T02:57:10;10.93;;;3.90;;
79212;SDS011;68639;52.380;9.822;2023-03-29T02:59:35;11.73;;;4.20;;
79212;SDS011;68639;52.380;9.822;2023-03-29T03:02:02;9.67;;;4.20;;
79212;SDS011;68639;52.380;9.822;2023-03-29T03:04:29;12.33;;;4.10;;
79212;SDS011;68639;52.380;9.822;2023-03-29T03:06:55;12.10;;;5.03;;
79212;SDS011;68639;52.380;9.822;2023-03-29T03:09:20;10.83;;;4.70;;
79212;SDS011;68639;52.380;9.822;2023-03-29T03:11:45;11.00;;;4.27;;
79212;SDS011;68639;52.380;9.822;2023-03-29T03:14:10;12.30;;;4.53;;
79212;SDS011;68639;52.380;9.822;2023-03-29T03:16:36;11.87;;;4.10;;
79212;SDS011;68639;52.380;9.822;2023-03-29T03:19:03;13.03;;;4.90;;
79212;SDS011;68639;52.380;9.822;2023-03-29T03:21:28;10.23;;;4.77;;
79212;SDS011;68639;52.380;9.822;2023-03-29T03:23:53;9.73;;;4.47;;
79212;SDS011;68639;52.380;9.822;2023-03-29T03:26:19;12.73;;;4.93;;
79212;SDS011;68639;52.380;9.822;2023-03-29T03:28:44;12.47;;;5.00;;
79212;SDS011;68639;52.380;9.822;2023-03-29T03:31:10;10.50;;;4.70;;
79212;SDS011;68639;52.380;9.822;2023-03-29T03:33:37;8.70;;;4.63;;
79212;SDS011;68639;52.380;9.822;2023-03-29T03:36:03;8.67;;;4.47;;
79212;SDS011;68639;52.380;9.822;2023-03-29T03:38:30;15.30;;;4.90;;
79212;SDS011;68639;52.380;9.822;2023-03-29T03:40:56;9.50;;;4.67;;
79212;SDS011;68639;52.380;9.822;2023-03-29T03:43:21;10.03;;;5.13;;
79212;SDS011;68639;52.380;9.822;2023-03-29T03:45:47;11.50;;;4.80;;
79212;SDS011;68639;52.380;9.822;2023-03-29T03:48:12;9.83;;;4.90;;
79212;SDS011;68639;52.380;9.822;2023-03-29T03:50:37;13.43;;;5.60;;
79212;SDS011;68639;52.380;9.822;2023-03-29T03:53:03;16.00;;;5.20;;
79212;SDS011;68639;52.380;9.822;2023-03-29T03:55:28;11.97;;;5.80;;
79212;SDS011;68639;52.380;9.822;2023-03-29T03:57:54;11.53;;;5.50;;
79212;SDS011;68639;52.380;9.822;2023-03-29T04:00:19;8.90;;;5.33;;
79212;SDS011;68639;52.380;9.822;2023-03-29T04:02:45;11.10;;;5.40;;
79212;SDS011;68639;52.380;9.822;2023-03-29T04:05:11;13.03;;;6.37;;
79212;SDS011;68639;52.380;9.822;2023-03-29T04:07:36;12.30;;;6.27;;
79212;SDS011;68639;52.380;9.822;2023-03-29T04:10:01;13.17;;;6.80;;
79212;SDS011;68639;52.380;9.822;2023-03-29T04:12:27;12.47;;;6.80;;
79212;SDS011;68639;52.380;9.822;2023-03-29T04:14:52;15.60;;;6.57;;
79212;SDS011;68639;52.380;9.822;2023-03-29T04:17:17;14.97;;;6.97;;
79212;SDS011;68639;52.380;9.822;2023-03-29T04:19:43;14.50;;;7.00;;
79212;SDS011;68639;52.380;9.822;2023-03-29T04:22:08;15.60;;;7.10;;
79212;SDS011;68639;52.380;9.822;2023-03-29T04:24:33;11.57;;;6.97;;
79212;SDS011;68639;52.380;9.822;2023-03-29T04:26:58;11.27;;;7.33;;
79212;SDS011;68639;52.380;9.822;2023-03-29T04:29:24;14.93;;;7.90;;
79212;SDS011;68639;52.380;9.822;2023-03-29T04:31:49;13.73;;;8.00;;
79212;SDS011;68639;52.380;9.822;2023-03-29T04:34:14;17.00;;;7.90;;
79212;SDS011;68639;52.380;9.822;2023-03-29T04:36:39;14.43;;;8.60;;
79212;SDS011;68639;52.380;9.822;2023-03-29T04:39:05;13.47;;;8.10;;
79212;SDS011;68639;52.380;9.822;2023-03-29T04:41:31;14.97;;;8.13;;
79212;SDS011;68639;52.380;9.822;2023-03-29T04:43:58;15.27;;;8.23;;
79212;SDS011;68639;52.380;9.822;2023-03-29T04:46:23;13.97;;;7.97;;
79212;SDS011;68639;52.380;9.822;2023-03-29T04:48:50;19.00;;;8.13;;
79212;SDS011;68639;52.380;9.822;2023-03-29T04:51:16;13.93;;;7.80;;
79212;SDS011;68639;52.380;9.822;2023-03-29T04:53:41;13.40;;;8.37;;
79212;SDS011;68639;52.380;9.822;2023-03-29T04:56:07;12.57;;;7.63;;
79212;SDS011;68639;52.380;9.822;2023-03-29T04:58:32;13.70;;;7.93;;
79212;SDS011;68639;52.380;9.822;2023-03-29T05:00:57;14.57;;;7.97;;
79212;SDS011;68639;52.380;9.822;2023-03-29T05:03:23;16.27;;;8.07;;
79212;SDS011;68639;52.380;9.822;2023-03-29T05:05:48;16.97;;;8.03;;
79212;SDS011;68639;52.380;9.822;2023-03-29T05:08:14;14.07;;;8.13;;
79212;SDS011;68639;52.380;9.822;2023-03-29T05:10:42;13.90;;;7.97;;
79212;SDS011;68639;52.380;9.822;2023-03-29T05:13:08;14.73;;;8.37;;
79212;SDS011;68639;52.380;9.822;2023-03-29T05:15:33;14.97;;;8.63;;
79212;SDS011;68639;52.380;9.822;2023-03-29T05:17:58;14.43;;;8.27;;
79212;SDS011;68639;52.380;9.822;2023-03-29T05:20:24;13.27;;;7.07;;
79212;SDS011;68639;52.380;9.822;2023-03-29T05:22:50;15.77;;;9.37;;
79212;SDS011;68639;52.380;9.822;2023-03-29T05:25:15;13.67;;;7.83;;
79212;SDS011;68639;52.380;9.822;2023-03-29T05:27:42;14.20;;;7.60;;
79212;SDS011;68639;52.380;9.822;2023-03-29T05:30:09;13.57;;;8.00;;
79212;SDS011;68639;52.380;9.822;2023-03-29T05:32:35;13.53;;;8.27;;
79212;SDS011;68639;52.380;9.822;2023-03-29T05:35:02;14.37;;;7.77;;
79212;SDS011;68639;52.380;9.822;2023-03-29T05:37:27;11.73;;;8.03;;
79212;SDS011;68639;52.380;9.822;2023-03-29T05:39:52;15.43;;;8.37;;
79212;SDS011;68639;52.380;9.822;2023-03-29T05:42:18;18.83;;;7.57;;
79212;SDS011;68639;52.380;9.822;2023-03-29T05:44:46;15.43;;;7.73;;
79212;SDS011;68639;52.380;9.822;2023-03-29T05:47:11;16.50;;;8.80;;
79212;SDS011;68639;52.380;9.822;2023-03-29T05:49:37;18.33;;;7.67;;
79212;SDS011;68639;52.380;9.822;2023-03-29T05:52:02;15.47;;;8.27;;
79212;SDS011;68639;52.380;9.822;2023-03-29T05:54:27;14.00;;;8.03;;
79212;SDS011;68639;52.380;9.822;2023-03-29T05:56:53;14.03;;;7.80;;
79212;SDS011;68639;52.380;9.822;2023-03-29T05:59:18;14.50;;;7.80;;
79212;SDS011;68639;52.380;9.822;2023-03-29T06:01:44;18.47;;;8.33;;
79212;SDS011;68639;52.380;9.822;2023-03-29T06:04:13;14.30;;;8.43;;
79212;SDS011;68639;52.380;9.822;2023-03-29T06:06:38;15.20;;;8.30;;
79212;SDS011;68639;52.380;9.822;2023-03-29T06:09:04;13.60;;;7.60;;
79212;SDS011;68639;52.380;9.822;2023-03-29T06:11:30;14.07;;;7.63;;
79212;SDS011;68639;52.380;9.822;2023-03-29T06:13:55;13.43;;;7.60;;
79212;SDS011;68639;52.380;9.822;2023-03-29T06:16:21;12.57;;;7.50;;
79212;SDS011;68639;52.380;9.822;2023-03-29T06:18:46;13.57;;;7.80;;
79212;SDS011;68639;52.380;9.822;2023-03-29T06:21:12;16.33;;;8.23;;
79212;SDS011;68639;52.380;9.822;2023-03-29T06:23:38;13.70;;;7.90;;
79212;SDS011;68639;52.380;9.822;2023-03-29T06:26:03;13.63;;;7.27;;
79212;SDS011;68639;52.380;9.822;2023-03-29T06:28:29;16.00;;;8.47;;
79212;SDS011;68639;52.380;9.822;2023-03-29T06:30:54;13.17;;;8.17;;
79212;SDS011;68639;52.380;9.822;2023-03-29T06:33:20;13.93;;;7.90;;
79212;SDS011;68639;52.380;9.822;2023-03-29T06:35:47;14.87;;;8.00;;
79212;SDS011;68639;52.380;9.822;2023-03-29T06:38:12;16.27;;;7.67;;
79212;SDS011;68639;52.380;9.822;2023-03-29T06:40:39;13.07;;;7.33;;
79212;SDS011;68639;52.380;9.822;2023-03-29T06:43:05;13.23;;;8.30;;
79212;SDS011;68639;52.380;9.822;2023-03-29T06:45:31;11.33;;;7.73;;
79212;SDS011;68639;52.380;9.822;2023-03-29T06:47:56;13.67;;;8.10;;
79212;SDS011;68639;52.380;9.822;2023-03-29T06:50:22;13.57;;;8.17;;
79212;SDS011;68639;52.380;9.822;2023-03-29T06:52:47;11.83;;;7.63;;
79212;SDS011;68639;52.380;9.822;2023-03-29T06:55:13;15.20;;;7.30;;
79212;SDS011;68639;52.380;9.822;2023-03-29T06:57:39;12.23;;;7.07;;
79212;SDS011;68639;52.380;9.822;2023-03-29T07:00:05;12.93;;;7.53;;
79212;SDS011;68639;52.380;9.822;2023-03-29T07:02:51;13.57;;;8.37;;
79212;SDS011;68639;52.380;9.822;2023-03-29T07:05:16;13.53;;;7.80;;
79212;SDS011;68639;52.380;9.822;2023-03-29T07:07:43;15.80;;;8.40;;
79212;SDS011;68639;52.380;9.822;2023-03-29T07:10:19;18.17;;;7.93;;
79212;SDS011;68639;52.380;9.822;2023-03-29T07:12:46;10.63;;;6.87;;
79212;SDS011;68639;52.380;9.822;2023-03-29T07:15:11;14.57;;;7.27;;
79212;SDS011;68639;52.380;9.822;2023-03-29T07:17:37;10.57;;;7.13;;
79212;SDS011;68639;52.380;9.822;2023-03-29T07:20:02;12.10;;;6.70;;
79212;SDS011;68639;52.380;9.822;2023-03-29T07:22:32;11.07;;;6.70;;
79212;SDS011;68639;52.380;9.822;2023-03-29T07:24:57;11.50;;;7.07;;
79212;SDS011;68639;52.380;9.822;2023-03-29T07:27:24;12.73;;;7.53;;
79212;SDS011;68639;52.380;9.822;2023-03-29T07:29:50;12.63;;;6.80;;
79212;SDS011;68639;52.380;9.822;2023-03-29T07:32:16;13.63;;;7.90;;
79212;SDS011;68639;52.380;9.822;2023-03-29T07:34:41;11.60;;;7.53;;
79212;SDS011;68639;52.380;9.822;2023-03-29T07:37:06;10.47;;;6.70;;
79212;SDS011;68639;52.380;9.822;2023-03-29T07:39:33;11.43;;;7.10;;
79212;SDS011;68639;52.380;9.822;2023-03-29T07:41:59;13.53;;;7.20;;
79212;SDS011;68639;52.380;9.822;2023-03-29T07:44:24;13.67;;;7.20;;
79212;SDS011;68639;52.380;9.822;2023-03-29T07:46:51;13.03;;;7.37;;
79212;SDS011;68639;52.380;9.822;2023-03-29T07:49:16;13.40;;;7.40;;
79212;SDS011;68639;52.380;9.822;2023-03-29T07:51:41;13.03;;;6.57;;
79212;SDS011;68639;52.380;9.822;2023-03-29T07:54:07;10.40;;;7.00;;
79212;SDS011;68639;52.380;9.822;2023-03-29T07:56:32;10.43;;;6.20;;
79212;SDS011;68639;52.380;9.822;2023-03-29T07:58:57;11.47;;;6.00;;
79212;SDS011;68639;52.380;9.822;2023-03-29T08:01:23;11.93;;;6.93;;
79212;SDS011;68639;52.380;9.822;2023-03-29T08:03:48;12.40;;;6.47;;
79212;SDS011;68639;52.380;9.822;2023-03-29T08:06:13;11.43;;;6.50;;
79212;SDS011;68639;52.380;9.822;2023-03-29T08:08:40;9.13;;;6.43;;
79212;SDS011;68639;52.380;9.822;2023-03-29T08:11:05;11.13;;;6.77;;
79212;SDS011;68639;52.380;9.822;2023-03-29T08:13:32;11.17;;;6.60;;
79212;SDS011;68639;52.380;9.822;2023-03-29T08:15:58;14.70;;;6.43;;
79212;SDS011;68639;52.380;9.822;2023-03-29T08:18:23;13.00;;;6.57;;
79212;SDS011;68639;52.380;9.822;2023-03-29T08:20:49;9.90;;;5.70;;
79212;SDS011;68639;52.380;9.822;2023-03-29T08:23:14;12.50;;;6.33;;
79212;SDS011;68639;52.380;9.822;2023-03-29T08:25:40;9.97;;;6.13;;
79212;SDS011;68639;52.380;9.822;2023-03-29T08:28:05;11.87;;;6.47;;
79212;SDS011;68639;52.380;9.822;2023-03-29T08:30:30;13.60;;;6.20;;
79212;SDS011;68639;52.380;9.822;2023-03-29T08:32:56;10.87;;;6.30;;
79212;SDS011;68639;52.380;9.822;2023-03-29T08:35:21;11.53;;;6.33;;
79212;SDS011;68639;52.380;9.822;2023-03-29T08:37:46;11.03;;;5.93;;
79212;SDS011;68639;52.380;9.822;2023-03-29T08:40:15;10.37;;;5.83;;
79212;SDS011;68639;52.380;9.822;2023-03-29T08:50:23;8.70;;;5.40;;
79212;SDS011;68639;52.380;9.822;2023-03-29T08:52:56;10.47;;;5.90;;
79212;SDS011;68639;52.380;9.822;2023-03-29T08:57:48;11.67;;;6.10;;
79212;SDS011;68639;52.380;9.822;2023-03-29T09:00:17;11.17;;;6.30;;
79212;SDS011;68639;52.380;9.822;2023-03-29T09:02:43;9.93;;;5.30;;
79212;SDS011;68639;52.380;9.822;2023-03-29T09:05:24;10.90;;;6.00;;
79212;SDS011;68639;52.380;9.822;2023-03-29T09:07:51;9.57;;;5.80;;
79212;SDS011;68639;52.380;9.822;2023-03-29T09:10:16;9.67;;;5.97;;
79212;SDS011;68639;52.380;9.822;2023-03-29T09:12:49;9.27;;;5.60;;
79212;SDS011;68639;52.380;9.822;2023-03-29T09:16:20;9.60;;;5.50;;
79212;SDS011;68639;52.380;9.822;2023-03-29T09:18:33;10.90;;;6.07;;
79212;SDS011;68639;52.380;9.822;2023-03-29T09:21:05;10.57;;;6.10;;
79212;SDS011;68639;52.380;9.822;2023-03-29T09:30:55;11.83;;;7.77;;
79212;SDS011;68639;52.380;9.822;2023-03-29T09:33:27;18.63;;;10.50;;
79212;SDS011;68639;52.380;9.822;2023-03-29T09:36:00;14.90;;;10.00;;
79212;SDS011;68639;52.380;9.822;2023-03-29T09:38:27;14.47;;;7.93;;
79212;SDS011;68639;52.380;9.822;2023-03-29T09:40:58;12.87;;;8.53;;
79212;SDS011;68639;52.380;9.822;2023-03-29T09:43:33;12.90;;;8.20;;
79212;SDS011;68639;52.380;9.822;2023-03-29T09:46:05;14.13;;;6.70;;
79212;SDS011;68639;52.380;9.822;2023-03-29T09:48:31;13.63;;;7.07;;
79212;SDS011;68639;52.380;9.822;2023-03-29T09:50:58;11.33;;;5.90;;
79212;SDS011;68639;52.380;9.822;2023-03-29T09:53:24;10.93;;;6.30;;
79212;SDS011;68639;52.380;9.822;2023-03-29T09:55:50;13.87;;;6.33;;
79212;SDS011;68639;52.380;9.822;2023-03-29T09:58:21;8.97;;;5.87;;
79212;SDS011;68639;52.380;9.822;2023-03-29T10:00:47;11.30;;;5.67;;
79212;SDS011;68639;52.380;9.822;2023-03-29T10:03:19;9.87;;;5.80;;
79212;SDS011;68639;52.380;9.822;2023-03-29T10:05:45;11.27;;;5.70;;
79212;SDS011;68639;52.380;9.822;2023-03-29T10:08:21;11.17;;;6.07;;
79212;SDS011;68639;52.380;9.822;2023-03-29T10:10:47;11.07;;;5.60;;
79212;SDS011;68639;52.380;9.822;2023-03-29T10:13:16;8.70;;;5.50;;
79212;SDS011;68639;52.380;9.822;2023-03-29T10:15:42;11.63;;;5.80;;
79212;SDS011;68639;52.380;9.822;2023-03-29T10:18:12;9.97;;;5.93;;
79212;SDS011;68639;52.380;9.822;2023-03-29T10:20:37;10.53;;;5.33;;
79212;SDS011;68639;52.380;9.822;2023-03-29T10:23:04;9.63;;;5.07;;
79212;SDS011;68639;52.380;9.822;2023-03-29T10:25:31;9.00;;;5.20;;
79212;SDS011;68639;52.380;9.822;2023-03-29T10:28:07;8.57;;;5.00;;
79212;SDS011;68639;52.380;9.822;2023-03-29T10:30:35;11.63;;;5.03;;
79212;SDS011;68639;52.380;9.822;2023-03-29T10:33:01;9.53;;;4.80;;
79212;SDS011;68639;52.380;9.822;2023-03-29T10:35:28;10.10;;;4.93;;
79212;SDS011;68639;52.380;9.822;2023-03-29T10:37:55;8.57;;;5.07;;
79212;SDS011;68639;52.380;9.822;2023-03-29T10:40:29;9.40;;;4.37;;
79212;SDS011;68639;52.380;9.822;2023-03-29T10:42:59;7.70;;;4.17;;
79212;SDS011;68639;52.380;9.822;2023-03-29T10:45:26;9.30;;;4.57;;
79212;SDS011;68639;52.380;9.822;2023-03-29T10:47:55;6.80;;;4.97;;
79212;SDS011;68639;52.380;9.822;2023-03-29T10:50:21;9.77;;;4.90;;
79212;SDS011;68639;52.380;9.822;2023-03-29T10:52:47;10.60;;;4.80;;
79212;SDS011;68639;52.380;9.822;2023-03-29T10:55:14;9.20;;;5.07;;
79212;SDS011;68639;52.380;9.822;2023-03-29T10:57:49;8.10;;;4.87;;
79212;SDS011;68639;52.380;9.822;2023-03-29T11:00:16;9.20;;;4.50;;
79212;SDS011;68639;52.380;9.822;2023-03-29T11:02:50;6.97;;;4.93;;
79212;SDS011;68639;52.380;9.822;2023-03-29T11:05:22;8.67;;;4.90;;
79212;SDS011;68639;52.380;9.822;2023-03-29T11:25:18;12.20;;;6.37;;
79212;SDS011;68639;52.380;9.822;2023-03-29T11:30:15;11.53;;;6.00;;
79212;SDS011;68639;52.380;9.822;2023-03-29T11:32:51;14.40;;;6.83;;
79212;SDS011;68639;52.380;9.822;2023-03-29T11:38:07;10.82;;;5.90;;
79212;SDS011;68639;52.380;9.822;2023-03-29T11:43:04;13.38;;;6.07;;
79212;SDS011;68639;52.380;9.822;2023-03-29T11:45:35;12.90;;;5.87;;
79212;SDS011;68639;52.380;9.822;2023-03-29T11:48:03;11.40;;;6.50;;
79212;SDS011;68639;52.380;9.822;2023-03-29T11:50:34;13.37;;;6.60;;
79212;SDS011;68639;52.380;9.822;2023-03-29T11:53:13;12.00;;;6.05;;
79212;SDS011;68639;52.380;9.822;2023-03-29T11:55:41;13.93;;;6.13;;
79212;SDS011;68639;52.380;9.822;2023-03-29T11:58:21;12.77;;;6.00;;
79212;SDS011;68639;52.380;9.822;2023-03-29T12:00:47;14.23;;;6.63;;
79212;SDS011;68639;52.380;9.822;2023-03-29T12:03:20;13.98;;;6.43;;
79212;SDS011;68639;52.380;9.822;2023-03-29T12:05:54;16.15;;;7.47;;
79212;SDS011;68639;52.380;9.822;2023-03-29T12:08:24;16.42;;;6.78;;
79212;SDS011;68639;52.380;9.822;2023-03-29T12:15:54;13.25;;;6.72;;
79212;SDS011;68639;52.380;9.822;2023-03-29T12:18:26;16.13;;;8.00;;
79212;SDS011;68639;52.380;9.822;2023-03-29T12:20:52;17.65;;;7.70;;
79212;SDS011;68639;52.380;9.822;2023-03-29T12:23:21;14.90;;;7.55;;
79212;SDS011;68639;52.380;9.822;2023-03-29T12:31:15;12.60;;;6.57;;
79212;SDS011;68639;52.380;9.822;2023-03-29T12:39:12;13.90;;;7.03;;
79212;SDS011;68639;52.380;9.822;2023-03-29T12:41:39;11.23;;;6.78;;
79212;SDS011;68639;52.380;9.822;2023-03-29T12:44:05;15.00;;;7.45;;
79212;SDS011;68639;52.380;9.822;2023-03-29T12:46:31;12.80;;;6.55;;
79212;SDS011;68639;52.380;9.822;2023-03-29T12:48:58;11.57;;;5.68;;
79212;SDS011;68639;52.380;9.822;2023-03-29T12:51:30;10.15;;;6.10;;
79212;SDS011;68639;52.380;9.822;2023-03-29T12:54:02;10.77;;;5.70;;
79212;SDS011;68639;52.380;9.822;2023-03-29T12:57:18;9.68;;;5.40;;
79212;SDS011;68639;52.380;9.822;2023-03-29T13:04:34;10.93;;;5.88;;
79212;SDS011;68639;52.380;9.822;2023-03-29T13:07:00;10.40;;;5.40;;
79212;SDS011;68639;52.380;9.822;2023-03-29T13:09:33;13.25;;;5.57;;
79212;SDS011;68639;52.380;9.822;2023-03-29T13:12:11;9.52;;;5.85;;
79212;SDS011;68639;52.380;9.822;2023-03-29T13:14:39;9.20;;;6.00;;
79212;SDS011;68639;52.380;9.822;2023-03-29T13:17:07;9.30;;;5.90;;
79212;SDS011;68639;52.380;9.822;2023-03-29T13:27:21;6.05;;;3.83;;
79212;SDS011;68639;52.380;9.822;2023-03-29T13:35:08;9.63;;;5.77;;
79212;SDS011;68639;52.380;9.822;2023-03-29T13:45:43;9.13;;;5.63;;
79212;SDS011;68639;52.380;9.822;2023-03-29T13:48:28;12.20;;;6.60;;
79212;SDS011;68639;52.380;9.822;2023-03-29T13:50:57;8.10;;;6.00;;
79212;SDS011;68639;52.380;9.822;2023-03-29T13:55:51;10.80;;;6.67;;
79212;SDS011;68639;52.380;9.822;2023-03-29T14:01:05;12.00;;;6.80;;
79212;SDS011;68639;52.380;9.822;2023-03-29T14:03:34;11.77;;;7.80;;
79212;SDS011;68639;52.380;9.822;2023-03-29T14:06:04;11.77;;;7.70;;
79212;SDS011;68639;52.380;9.822;2023-03-29T14:08:32;10.40;;;6.93;;
79212;SDS011;68639;52.380;9.822;2023-03-29T14:11:00;12.60;;;7.83;;
79212;SDS011;68639;52.380;9.822;2023-03-29T14:13:26;14.77;;;8.25;;
79212;SDS011;68639;52.380;9.822;2023-03-29T14:15:57;13.23;;;8.17;;
79212;SDS011;68639;52.380;9.822;2023-03-29T14:18:26;13.43;;;8.73;;
79212;SDS011;68639;52.380;9.822;2023-03-29T14:20:53;12.68;;;8.10;;
79212;SDS011;68639;52.380;9.822;2023-03-29T14:23:23;11.40;;;7.87;;
79212;SDS011;68639;52.380;9.822;2023-03-29T14:25:49;11.85;;;7.30;;
79212;SDS011;68639;52.380;9.822;2023-03-29T14:28:22;10.13;;;7.32;;
79212;SDS011;68639;52.380;9.822;2023-03-29T14:30:47;15.02;;;7.75;;
79212;SDS011;68639;52.380;9.822;2023-03-29T14:33:14;11.20;;;7.60;;
79212;SDS011;68639;52.380;9.822;2023-03-29T14:35:48;10.90;;;7.10;;
79212;SDS011;68639;52.380;9.822;2023-03-29T14:38:14;11.52;;;6.57;;
79212;SDS011;68639;52.380;9.822;2023-03-29T14:40:42;10.25;;;6.53;;
79212;SDS011;68639;52.380;9.822;2023-03-29T14:43:07;9.68;;;5.82;;
79212;SDS011;68639;52.380;9.822;2023-03-29T14:45:32;12.23;;;6.30;;
79212;SDS011;68639;52.380;9.822;2023-03-29T14:47:58;12.13;;;6.82;;
79212;SDS011;68639;52.380;9.822;2023-03-29T14:50:26;9.40;;;6.57;;
79212;SDS011;68639;52.380;9.822;2023-03-29T14:52:52;8.53;;;6.40;;
79212;SDS011;68639;52.380;9.822;2023-03-29T14:55:17;10.23;;;5.65;;
79212;SDS011;68639;52.380;9.822;2023-03-29T14:57:47;8.87;;;5.73;;
79212;SDS011;68639;52.380;9.822;2023-03-29T15:00:15;9.38;;;5.68;;
79212;SDS011;68639;52.380;9.822;2023-03-29T15:02:49;8.40;;;5.73;;
79212;SDS011;68639;52.380;9.822;2023-03-29T15:05:22;9.75;;;5.82;;
79212;SDS011;68639;52.380;9.822;2023-03-29T15:07:47;10.35;;;5.90;;
79212;SDS011;68639;52.380;9.822;2023-03-29T15:10:16;8.10;;;5.28;;
79212;SDS011;68639;52.380;9.822;2023-03-29T15:12:42;8.45;;;5.25;;
79212;SDS011;68639;52.380;9.822;2023-03-29T15:15:09;7.70;;;5.27;;
79212;SDS011;68639;52.380;9.822;2023-03-29T15:17:39;7.00;;;5.10;;
79212;SDS011;68639;52.380;9.822;2023-03-29T15:20:05;6.90;;;5.23;;
79212;SDS011;68639;52.380;9.822;2023-03-29T15:22:38;8.83;;;5.20;;
79212;SDS011;68639;52.380;9.822;2023-03-29T15:25:25;8.63;;;5.50;;
79212;SDS011;68639;52.380;9.822;2023-03-29T15:27:50;7.87;;;5.17;;
79212;SDS011;68639;52.380;9.822;2023-03-29T15:30:18;8.20;;;5.70;;
79212;SDS011;68639;52.380;9.822;2023-03-29T15:32:43;7.63;;;5.70;;
79212;SDS011;68639;52.380;9.822;2023-03-29T15:35:24;8.97;;;5.97;;
79212;SDS011;68639;52.380;9.822;2023-03-29T15:37:50;10.43;;;6.18;;
79212;SDS011;68639;52.380;9.822;2023-03-29T15:40:17;8.43;;;5.97;;
79212;SDS011;68639;52.380;9.822;2023-03-29T15:42:44;8.70;;;6.23;;
79212;SDS011;68639;52.380;9.822;2023-03-29T15:45:13;9.20;;;6.70;;
79212;SDS011;68639;52.380;9.822;2023-03-29T15:47:38;12.13;;;7.40;;
79212;SDS011;68639;52.380;9.822;2023-03-29T15:50:03;11.50;;;7.30;;
79212;SDS011;68639;52.380;9.822;2023-03-29T15:52:29;11.13;;;7.80;;
79212;SDS011;68639;52.380;9.822;2023-03-29T15:54:54;12.20;;;7.30;;
79212;SDS011;68639;52.380;9.822;2023-03-29T15:57:19;10.23;;;7.37;;
79212;SDS011;68639;52.380;9.822;2023-03-29T15:59:45;11.53;;;6.70;;
79212;SDS011;68639;52.380;9.822;2023-03-29T16:02:11;9.53;;;7.07;;
79212;SDS011;68639;52.380;9.822;2023-03-29T16:04:37;12.87;;;8.00;;
79212;SDS011;68639;52.380;9.822;2023-03-29T16:07:05;12.33;;;8.37;;
79212;SDS011;68639;52.380;9.822;2023-03-29T16:09:30;11.03;;;8.63;;
79212;SDS011;68639;52.380;9.822;2023-03-29T16:11:56;14.57;;;8.33;;
79212;SDS011;68639;52.380;9.822;2023-03-29T16:14:25;12.10;;;7.70;;
79212;SDS011;68639;52.380;9.822;2023-03-29T16:16:51;11.40;;;8.33;;
79212;SDS011;68639;52.380;9.822;2023-03-29T16:19:17;12.07;;;8.77;;
79212;SDS011;68639;52.380;9.822;2023-03-29T16:21:42;15.70;;;10.53;;
79212;SDS011;68639;52.380;9.822;2023-03-29T16:24:12;14.20;;;9.13;;
79212;SDS011;68639;52.380;9.822;2023-03-29T16:26:38;13.50;;;9.10;;